Time;durP1;ratioP1;P1;durP2;ratioP2;P2;SDS_P1;SDS_P2;PMS_P1;PMS_P2;Temp;Humidity;BMP_temperature;BMP_pressure;BME280_temperature;BME280_humidity;BME280_pressure;Samples;Min_cycle;Max_cycle;Signal;HPM_P1;HPM_P2
2022/01/21 01:52:30;;;;;;;;;;;;;;;;;;6201628;22;19905;-96
2022/01/21 01:55:03;;;;;;;;;;;;;;;;;;6144555;23;19923;-96
2022/01/21 02:28:43;;;;;;;;;;;;;;;;;;6199046;23;19920;-96
2022/01/21 02:33:56;;;;;;;;;;;;;;;;;;6194729;22;19924;-96
2022/01/21 02:39:04;;;;;;;;;;;;;;;;;;6202040;23;19920;-95
2022/01/21 02:41:30;;;;;;;;;;;;;;;;;;6197192;23;19927;-94
2022/01/21 02:43:56;;;;;;;;;;;;;;;;;;6201902;23;19924;-96
2022/01/21 02:46:23;;;;;;;;;;;;;;;;;;6199764;23;19927;-96
2022/01/21 03:17:27;;;;;;;;;;;;;;;;;;6247016;23;19924;-96
2022/01/21 03:19:55;;;;;;;;;;;;;;;;;;6267035;23;19950;-96
2022/01/21 03:41:00;;;;;;;;;;;;;;;;;;6219875;23;19908;-96
2022/01/21 03:51:23;;;;;;;;;;;;;;;;;;6207330;23;19999;-96
2022/01/21 03:59:00;;;;;;;;;;;;;;;;;;6176711;22;19920;-96
2022/01/21 04:01:28;;;;;;;;;;;;;;;;;;6202487;23;19987;-96
2022/01/21 04:16:59;;;;;;;;;;;;;;;;;;6158491;23;19920;-96
2022/01/21 04:19:28;;;;;;;;;;;;;;;;;;6211634;23;19974;-96
2022/01/21 04:24:36;;;;;;;;;;;;;;;;;;6236580;23;19912;-96
2022/01/21 04:27:02;;;;;;;;;;;;;;;;;;6232042;23;19927;-96
2022/01/21 04:29:29;;;;;;;;;;;;;;;;;;6229866;23;19920;-96
2022/01/21 04:31:55;;;;;;;;;;;;;;;;;;6228670;23;19927;-96
2022/01/21 04:34:21;;;;;;;;;;;;;;;;;;6232082;23;19967;-96
2022/01/21 04:36:56;;;;;;;;;;;;;;;;;;6237373;23;19920;-96
2022/01/21 04:49:43;;;;;;;;;;;;;;;;;;6178355;22;19918;-96
2022/01/21 04:52:09;;;;;;;;;;;;;;;;;;6200712;23;19924;-96
2022/01/21 05:02:22;;;;;;;;;;;;;;;;;;6225459;22;19931;-96
2022/01/21 05:04:49;;;;;;;;;;;;;;;;;;6228307;23;19930;-96
2022/01/21 05:07:21;;;;;;;;;;;;;;;;;;6232201;23;19904;-96
2022/01/21 05:09:59;;;;;;;;;;;;;;;;;;6182934;23;19905;-96
2022/01/21 05:15:27;;;;;;;;;;;;;;;;;;6183680;22;19923;-95
2022/01/21 05:17:53;;;;;;;;;;;;;;;;;;6265169;23;19908;-96
2022/01/21 05:23:09;;;;;;;;;;;;;;;;;;6262780;23;20030;-96
2022/01/21 05:25:37;;;;;;;;;;;;;;;;;;6268676;22;19924;-96
2022/01/21 05:28:06;;;;;;;;;;;;;;;;;;6270632;23;19919;-96
2022/01/21 05:54:25;;;;;;;;;;;;;;;;;;6198074;23;19967;-96
2022/01/21 06:12:43;;;;;;;;;;;;;;;;;;6175584;22;19934;-96
2022/01/21 06:38:49;;;;;;;;;;;;;;;;;;6206636;23;19904;-96
2022/01/21 06:41:16;;;;;;;;;;;;;;;;;;6172082;23;19948;-94
2022/01/21 06:43:43;;;;;;;;;;;;;;;;;;6194625;23;19924;-96
2022/01/21 06:46:09;;;;;;;;;;;;;;;;;;6195199;23;20335;-96
2022/01/21 06:48:35;;;;;;;;;;;;;;;;;;6195672;23;19924;-96
2022/01/21 06:51:02;;;;;;;;;;;;;;;;;;6196572;23;19964;-96
2022/01/21 06:53:28;;;;;;;;;;;;;;;;;;6195951;23;19927;-96
2022/01/21 06:55:54;;;;;;;;;;;;;;;;;;6200302;23;19920;-95
2022/01/21 06:58:21;;;;;;;;;;;;;;;;;;6195430;23;19920;-96
2022/01/21 07:00:47;;;;;;;;;;;;;;;;;;6198088;23;19947;-94
2022/01/21 07:03:13;;;;;;;;;;;;;;;;;;6197338;23;19944;-96
2022/01/21 07:05:40;;;;;;;;;;;;;;;;;;6198445;23;19924;-96
2022/01/21 07:08:06;;;;;;;;;;;;;;;;;;6196777;23;20402;-93
2022/01/21 07:10:32;;;;;;;;;;;;;;;;;;6198768;23;19920;-91
2022/01/21 07:13:06;;;;;;;;;;;;;;;;;;6202680;23;19928;-95
2022/01/21 07:15:32;;;;;;;;;;;;;;;;;;6202625;23;19943;-94
2022/01/21 07:18:03;;;;;;;;;;;;;;;;;;6201972;23;19925;-94
2022/01/21 07:25:50;;;;;;;;;;;;;;;;;;6167975;23;19967;-95
2022/01/21 07:28:18;;;;;;;;;;;;;;;;;;6167207;23;19920;-95
2022/01/21 07:30:44;;;;;;;;;;;;;;;;;;6171492;23;19917;-96
2022/01/21 07:33:13;;;;;;;;;;;;;;;;;;6175642;23;19926;-95
2022/01/21 07:35:39;;;;;;;;;;;;;;;;;;6168936;23;19920;-96
2022/01/21 07:38:05;;;;;;;;;;;;;;;;;;6169018;23;19920;-92
2022/01/21 07:40:32;;;;;;;;;;;;;;;;;;6168870;23;19925;-94
2022/01/21 07:42:58;;;;;;;;;;;;;;;;;;6171223;23;19925;-95
2022/01/21 07:45:24;;;;;;;;;;;;;;;;;;6171193;23;19967;-94
2022/01/21 07:47:50;;;;;;;;;;;;;;;;;;6169754;23;19940;-96
2022/01/21 07:50:17;;;;;;;;;;;;;;;;;;6170279;23;19921;-96
2022/01/21 07:52:43;;;;;;;;;;;;;;;;;;6169822;23;19947;-95
2022/01/21 07:55:10;;;;;;;;;;;;;;;;;;6169974;23;19940;-94
2022/01/21 07:57:36;;;;;;;;;;;;;;;;;;6171649;23;19931;-95
2022/01/21 08:00:04;;;;;;;;;;;;;;;;;;6145055;23;19969;-96
2022/01/21 08:02:31;;;;;;;;;;;;;;;;;;6170627;23;19924;-94
2022/01/21 08:05:01;;;;;;;;;;;;;;;;;;6168654;23;20087;-93
2022/01/21 08:07:27;;;;;;;;;;;;;;;;;;6166771;23;19931;-95
2022/01/21 08:09:57;;;;;;;;;;;;;;;;;;6171877;23;19956;-96
2022/01/21 08:12:26;;;;;;;;;;;;;;;;;;6170940;23;20274;-95
2022/01/21 08:17:35;;;;;;;;;;;;;;;;;;6168454;23;19921;-94
2022/01/21 08:20:01;;;;;;;;;;;;;;;;;;6172316;23;19927;-93
2022/01/21 08:22:27;;;;;;;;;;;;;;;;;;6170317;23;19905;-93
2022/01/21 08:24:53;;;;;;;;;;;;;;;;;;6167619;23;19928;-94
2022/01/21 08:27:20;;;;;;;;;;;;;;;;;;6166179;23;19975;-93
2022/01/21 08:29:46;;;;;;;;;;;;;;;;;;6167688;23;19924;-92
2022/01/21 08:32:12;;;;;;;;;;;;;;;;;;6168013;23;19968;-96
2022/01/21 08:34:41;;;;;;;;;;;;;;;;;;6170414;23;19924;-95
2022/01/21 08:37:07;;;;;;;;;;;;;;;;;;6169591;23;19921;-92
2022/01/21 08:39:33;;;;;;;;;;;;;;;;;;6166916;23;19925;-93
2022/01/21 08:42:00;;;;;;;;;;;;;;;;;;6168408;23;19921;-94
2022/01/21 08:44:26;;;;;;;;;;;;;;;;;;6165574;23;19924;-94
2022/01/21 08:46:52;;;;;;;;;;;;;;;;;;6169474;23;19967;-94
2022/01/21 08:49:21;;;;;;;;;;;;;;;;;;6172434;23;19961;-96
2022/01/21 08:51:53;;;;;;;;;;;;;;;;;;6180400;23;19921;-96
2022/01/21 08:54:21;;;;;;;;;;;;;;;;;;6173721;23;19921;-96
2022/01/21 08:56:50;;;;;;;;;;;;;;;;;;6169093;23;19960;-94
2022/01/21 08:59:17;;;;;;;;;;;;;;;;;;6167645;23;19967;-96
2022/01/21 09:01:44;;;;;;;;;;;;;;;;;;6170656;23;19924;-95
2022/01/21 09:04:15;;;;;;;;;;;;;;;;;;6173142;23;19927;-96
2022/01/21 09:06:41;;;;;;;;;;;;;;;;;;6173951;23;19928;-96
2022/01/21 09:11:50;;;;;;;;;;;;;;;;;;6166397;23;19925;-96
2022/01/21 09:14:25;;;;;;;;;;;;;;;;;;6175673;23;19921;-96
2022/01/21 09:19:39;;;;;;;;;;;;;;;;;;6175296;23;19932;-96
2022/01/21 09:22:05;;;;;;;;;;;;;;;;;;6166339;23;19926;-96
2022/01/21 09:24:33;;;;;;;;;;;;;;;;;;6184993;23;19999;-94
2022/01/21 09:26:59;;;;;;;;;;;;;;;;;;6195565;23;19959;-96
2022/01/21 09:29:25;;;;;;;;;;;;;;;;;;6203167;23;19934;-95
2022/01/21 09:31:52;;;;;;;;;;;;;;;;;;6201698;23;19920;-96
2022/01/21 09:34:24;;;;;;;;;;;;;;;;;;6201127;23;19928;-96
2022/01/21 09:36:52;;;;;;;;;;;;;;;;;;6207348;23;19920;-96
2022/01/21 09:39:19;;;;;;;;;;;;;;;;;;6202858;23;19927;-96
2022/01/21 09:41:54;;;;;;;;;;;;;;;;;;6208084;23;19925;-96
2022/01/21 09:44:30;;;;;;;;;;;;;;;;;;6198100;23;20008;-96
2022/01/21 09:46:59;;;;;;;;;;;;;;;;;;6201117;23;19916;-94
2022/01/21 09:49:29;;;;;;;;;;;;;;;;;;6198256;23;19920;-96
2022/01/21 09:51:56;;;;;;;;;;;;;;;;;;6202153;23;19924;-95
2022/01/21 09:54:22;;;;;;;;;;;;;;;;;;6200469;23;19948;-96
2022/01/21 09:56:48;;;;;;;;;;;;;;;;;;6197999;23;20512;-96
2022/01/21 09:59:15;;;;;;;;;;;;;;;;;;6195914;23;19920;-95
2022/01/21 10:01:41;;;;;;;;;;;;;;;;;;6199251;23;19921;-95
2022/01/21 10:04:07;;;;;;;;;;;;;;;;;;6196975;23;19924;-96
2022/01/21 10:06:41;;;;;;;;;;;;;;;;;;6202878;23;19921;-96
2022/01/21 10:09:07;;;;;;;;;;;;;;;;;;6199164;23;19920;-94
2022/01/21 10:11:33;;;;;;;;;;;;;;;;;;6197301;23;19924;-96
2022/01/21 10:14:00;;;;;;;;;;;;;;;;;;6194637;23;19924;-96
2022/01/21 10:16:26;;;;;;;;;;;;;;;;;;6200698;23;19911;-96
2022/01/21 10:18:53;;;;;;;;;;;;;;;;;;6195736;23;19947;-93
2022/01/21 10:21:19;;;;;;;;;;;;;;;;;;6198848;23;19947;-95
2022/01/21 10:23:48;;;;;;;;;;;;;;;;;;6199847;23;19928;-96
2022/01/21 10:28:58;;;;;;;;;;;;;;;;;;6196814;23;19991;-96
2022/01/21 10:31:27;;;;;;;;;;;;;;;;;;6198352;23;19924;-96
2022/01/21 10:33:53;;;;;;;;;;;;;;;;;;6196803;23;19947;-94
2022/01/21 10:36:24;;;;;;;;;;;;;;;;;;6198099;23;19921;-96
2022/01/21 10:38:51;;;;;;;;;;;;;;;;;;6195155;23;19971;-94
2022/01/21 10:41:17;;;;;;;;;;;;;;;;;;6194296;23;19927;-95
2022/01/21 10:43:44;;;;;;;;;;;;;;;;;;6194616;23;19924;-96
2022/01/21 10:46:10;;;;;;;;;;;;;;;;;;6194488;23;20310;-95
2022/01/21 10:48:38;;;;;;;;;;;;;;;;;;6188218;22;19932;-96
2022/01/21 10:59:04;;;;;;;;;;;;;;;;;;6205224;23;19924;-95
2022/01/21 11:01:31;;;;;;;;;;;;;;;;;;6223958;22;19916;-94
2022/01/21 11:04:10;;;;;;;;;;;;;;;;;;6230896;23;19924;-96
2022/01/21 11:12:08;;;;;;;;;;;;;;;;;;6223181;22;19920;-96
2022/01/21 11:14:41;;;;;;;;;;;;;;;;;;6233371;23;19920;-96
2022/01/21 11:17:46;;;;;;;;;;;;;;;;;;;;;
2022/01/21 11:20:16;;;;;;;;;;;;;;;;;;6210749;22;20393;-96
2022/01/21 11:25:24;;;;;;;;;;;;;;;;;;6190315;23;19924;-96
2022/01/21 11:28:00;;;;;;;;;;;;;;;;;;6203603;23;19944;-97
2022/01/21 11:33:17;;;;;;;;;;;;;;;;;;6200625;23;19920;-96
2022/01/21 11:38:26;;;;;;;;;;;;;;;;;;6179974;23;19954;-95
2022/01/21 11:40:53;;;;;;;;;;;;;;;;;;6197657;23;19928;-96
2022/01/21 11:43:19;;;;;;;;;;;;;;;;;;6200926;23;20368;-96
2022/01/21 11:51:09;;;;;;;;;;;;;;;;;;6158036;23;19947;-93
2022/01/21 11:53:35;;;;;;;;;;;;;;;;;;6177226;23;20628;-96
2022/01/21 11:56:09;;;;;;;;;;;;;;;;;;6173519;23;19947;-96
2022/01/21 11:58:35;;;;;;;;;;;;;;;;;;6188483;23;19940;-92
2022/01/21 12:01:09;;;;;;;;;;;;;;;;;;6206510;23;19904;-96
2022/01/21 12:03:35;;;;;;;;;;;;;;;;;;6200662;23;19928;-94
2022/01/21 12:06:01;;;;;;;;;;;;;;;;;;6202892;23;19905;-96
2022/01/21 12:11:03;;;;;;;;;;;;;;;;;;6140068;23;19928;-94
2022/01/21 12:13:36;;;;;;;;;;;;;;;;;;6214980;23;19920;-96
2022/01/21 12:19:08;;;;;;;;;;;;;;;;;;6225129;23;19930;-96
2022/01/21 12:24:19;;;;;;;;;;;;;;;;;;6241396;23;19915;-92
2022/01/21 12:26:47;;;;;;;;;;;;;;;;;;6219559;22;19920;-93
2022/01/21 12:29:19;;;;;;;;;;;;;;;;;;6205873;23;19967;-96
2022/01/21 12:31:49;;;;;;;;;;;;;;;;;;6204053;23;19911;-96
2022/01/21 12:34:21;;;;;;;;;;;;;;;;;;6201241;23;19924;-96
2022/01/21 12:36:51;;;;;;;;;;;;;;;;;;6200655;23;19996;-96
2022/01/21 12:39:18;;;;;;;;;;;;;;;;;;6205262;23;19972;-96
2022/01/21 12:41:53;;;;;;;;;;;;;;;;;;6203321;23;19924;-96
2022/01/21 12:44:32;;;;;;;;;;;;;;;;;;6190992;23;19920;-96
2022/01/21 12:46:58;;;;;;;;;;;;;;;;;;6200495;22;19920;-93
2022/01/21 12:52:13;;;;;;;;;;;;;;;;;;6205510;22;19920;-94
2022/01/21 12:57:12;;;;;;;;;;;;;;;;;;6231406;23;19920;-94
2022/01/21 12:59:38;;;;;;;;;;;;;;;;;;6226173;23;19943;-96
2022/01/21 13:02:05;;;;;;;;;;;;;;;;;;6233199;23;19943;-92
2022/01/21 13:06:59;;;;;;;;;;;;;;;;;;6205821;23;20401;-96
2022/01/21 13:09:25;;;;;;;;;;;;;;;;;;6198920;23;19931;-96
2022/01/21 13:11:53;;;;;;;;;;;;;;;;;;6198886;23;19921;-94
2022/01/21 13:14:34;;;;;;;;;;;;;;;;;;6199117;23;19920;-96
2022/01/21 13:17:00;;;;;;;;;;;;;;;;;;6199096;23;19924;-89
2022/01/21 13:19:27;;;;;;;;;;;;;;;;;;6196292;23;19924;-92
2022/01/21 13:21:55;;;;;;;;;;;;;;;;;;6201235;23;19929;-95
2022/01/21 13:24:27;;;;;;;;;;;;;;;;;;6202756;23;20369;-96
2022/01/21 13:26:58;;;;;;;;;;;;;;;;;;6201314;23;19952;-95
2022/01/21 13:29:24;;;;;;;;;;;;;;;;;;6193996;23;19924;-92
2022/01/21 13:31:50;;;;;;;;;;;;;;;;;;6204576;23;19944;-96
2022/01/21 13:34:24;;;;;;;;;;;;;;;;;;6205973;23;19920;-96
2022/01/21 13:36:50;;;;;;;;;;;;;;;;;;6204870;23;20007;-96
2022/01/21 13:39:16;;;;;;;;;;;;;;;;;;6175794;23;19920;-96
2022/01/21 13:41:45;;;;;;;;;;;;;;;;;;6174876;23;19927;-96
2022/01/21 13:44:16;;;;;;;;;;;;;;;;;;6160947;23;19931;-96
2022/01/21 13:46:57;;;;;;;;;;;;;;;;;;6196033;23;19920;-96
2022/01/21 13:49:23;;;;;;;;;;;;;;;;;;6209787;23;19920;-95
2022/01/21 13:51:50;;;;;;;;;;;;;;;;;;6202875;23;19924;-94
2022/01/21 13:54:17;;;;;;;;;;;;;;;;;;6206724;23;19921;-96
2022/01/21 13:56:43;;;;;;;;;;;;;;;;;;6200591;23;19924;-96
2022/01/21 13:59:09;;;;;;;;;;;;;;;;;;6201432;23;19920;-94
2022/01/21 14:01:36;;;;;;;;;;;;;;;;;;6199107;23;19904;-96
2022/01/21 14:04:03;;;;;;;;;;;;;;;;;;6205016;23;19916;-96
2022/01/21 14:06:29;;;;;;;;;;;;;;;;;;6197375;23;20111;-95
2022/01/21 14:09:03;;;;;;;;;;;;;;;;;;6199493;23;19926;-96
2022/01/21 14:11:35;;;;;;;;;;;;;;;;;;6206912;23;19926;-95
2022/01/21 14:14:01;;;;;;;;;;;;;;;;;;6201989;23;19944;-94
2022/01/21 14:16:27;;;;;;;;;;;;;;;;;;6200733;23;19905;-96
2022/01/21 14:18:53;;;;;;;;;;;;;;;;;;6201709;23;19931;-96
2022/01/21 14:21:25;;;;;;;;;;;;;;;;;;6199076;23;19931;-95
2022/01/21 14:23:54;;;;;;;;;;;;;;;;;;6201126;23;19925;-96
2022/01/21 14:26:20;;;;;;;;;;;;;;;;;;6200939;23;19911;-93
2022/01/21 14:29:00;;;;;;;;;;;;;;;;;;6195891;23;19924;-96
2022/01/21 14:31:26;;;;;;;;;;;;;;;;;;6246935;23;20011;-95
2022/01/21 14:33:53;;;;;;;;;;;;;;;;;;6234952;23;19923;-96
2022/01/21 14:36:19;;;;;;;;;;;;;;;;;;6235468;23;19927;-96
2022/01/21 14:38:45;;;;;;;;;;;;;;;;;;6232722;23;19927;-95
2022/01/21 14:41:12;;;;;;;;;;;;;;;;;;6230977;23;19959;-96
2022/01/21 14:46:18;;;;;;;;;;;;;;;;;;6221672;23;20342;-95
2022/01/21 14:48:44;;;;;;;;;;;;;;;;;;6228389;23;19962;-96
2022/01/21 14:51:17;;;;;;;;;;;;;;;;;;6228522;23;19919;-95
2022/01/21 14:53:45;;;;;;;;;;;;;;;;;;6226549;23;20291;-95
2022/01/21 14:56:17;;;;;;;;;;;;;;;;;;6235281;23;19920;-96
2022/01/21 15:01:31;;;;;;;;;;;;;;;;;;6243299;23;19992;-96
2022/01/21 15:03:58;;;;;;;;;;;;;;;;;;6229079;22;19967;-96
2022/01/21 15:06:29;;;;;;;;;;;;;;;;;;6229386;23;19927;-96
2022/01/21 15:11:58;;;;;;;;;;;;;;;;;;6230969;23;19961;-96
2022/01/21 15:14:42;;;;;;;;;;;;;;;;;;6232796;23;19908;-96
2022/01/21 15:17:09;;;;;;;;;;;;;;;;;;6231410;23;19931;-96
2022/01/21 15:19:35;;;;;;;;;;;;;;;;;;6224108;23;19944;-96
2022/01/21 15:22:01;;;;;;;;;;;;;;;;;;6208432;23;19926;-95
2022/01/21 15:24:28;;;;;;;;;;;;;;;;;;6195890;23;19926;-95
2022/01/21 15:26:54;;;;;;;;;;;;;;;;;;6195535;23;19920;-95
2022/01/21 15:29:20;;;;;;;;;;;;;;;;;;6199086;23;19945;-95
2022/01/21 15:34:28;;;;;;;;;;;;;;;;;;6201706;23;19924;-95
2022/01/21 15:39:35;;;;;;;;;;;;;;;;;;6201607;23;19927;-96
2022/01/21 15:42:02;;;;;;;;;;;;;;;;;;6200244;23;19955;-96
2022/01/21 15:44:28;;;;;;;;;;;;;;;;;;6201570;23;19935;-96
2022/01/21 15:54:50;;;;;;;;;;;;;;;;;;6235021;23;19908;-96
2022/01/21 15:59:51;;;;;;;;;;;;;;;;;;6192945;23;19927;-96
2022/01/21 16:02:17;;;;;;;;;;;;;;;;;;6229681;23;19904;-96
2022/01/21 16:07:24;;;;;;;;;;;;;;;;;;6228732;23;20284;-94
2022/01/21 16:09:50;;;;;;;;;;;;;;;;;;6225955;23;19923;-93
2022/01/21 16:12:18;;;;;;;;;;;;;;;;;;6226871;23;19928;-96
2022/01/21 16:14:44;;;;;;;;;;;;;;;;;;6231665;23;19991;-96
2022/01/21 16:17:13;;;;;;;;;;;;;;;;;;6231933;23;19928;-96
2022/01/21 16:19:39;;;;;;;;;;;;;;;;;;6225114;23;20354;-95
2022/01/21 16:22:06;;;;;;;;;;;;;;;;;;6229670;23;20305;-96
2022/01/21 16:24:35;;;;;;;;;;;;;;;;;;6228901;23;19923;-96
2022/01/21 16:27:02;;;;;;;;;;;;;;;;;;6229647;23;19920;-93
2022/01/21 16:29:30;;;;;;;;;;;;;;;;;;6228728;23;19974;-94
2022/01/21 16:31:58;;;;;;;;;;;;;;;;;;6228971;23;20130;-96
2022/01/21 16:37:07;;;;;;;;;;;;;;;;;;6200949;23;19920;-93
2022/01/21 16:39:35;;;;;;;;;;;;;;;;;;6232546;23;19924;-96
2022/01/21 16:42:10;;;;;;;;;;;;;;;;;;6230989;23;19924;-96
2022/01/21 16:44:37;;;;;;;;;;;;;;;;;;6232698;23;19943;-96
2022/01/21 16:47:04;;;;;;;;;;;;;;;;;;6225408;23;19926;-96
2022/01/21 16:49:30;;;;;;;;;;;;;;;;;;6228940;23;19930;-96
2022/01/21 16:51:59;;;;;;;;;;;;;;;;;;6228799;23;19923;-96
2022/01/21 16:54:26;;;;;;;;;;;;;;;;;;6228248;23;19924;-95
2022/01/21 16:56:55;;;;;;;;;;;;;;;;;;6225871;23;20309;-96
2022/01/21 16:59:22;;;;;;;;;;;;;;;;;;6228058;23;19926;-96
2022/01/21 17:01:48;;;;;;;;;;;;;;;;;;6225346;23;19924;-94
2022/01/21 17:04:15;;;;;;;;;;;;;;;;;;6224897;23;19970;-96
2022/01/21 17:06:50;;;;;;;;;;;;;;;;;;6229205;23;19919;-96
2022/01/21 17:09:16;;;;;;;;;;;;;;;;;;6227845;23;19944;-96
2022/01/21 17:11:42;;;;;;;;;;;;;;;;;;6225959;23;20419;-96
2022/01/21 17:14:08;;;;;;;;;;;;;;;;;;6223826;23;19923;-95
2022/01/21 17:16:35;;;;;;;;;;;;;;;;;;6224175;23;20035;-95
2022/01/21 17:19:01;;;;;;;;;;;;;;;;;;6224508;23;19924;-96
2022/01/21 17:21:27;;;;;;;;;;;;;;;;;;6224742;23;19919;-96
2022/01/21 17:23:54;;;;;;;;;;;;;;;;;;6225379;23;19920;-96
2022/01/21 17:26:20;;;;;;;;;;;;;;;;;;6225202;23;19926;-95
2022/01/21 17:28:47;;;;;;;;;;;;;;;;;;6221707;23;19924;-96
2022/01/21 17:31:26;;;;;;;;;;;;;;;;;;6226053;23;19924;-96
2022/01/21 17:33:55;;;;;;;;;;;;;;;;;;6227158;23;20305;-96
2022/01/21 17:36:22;;;;;;;;;;;;;;;;;;6225205;23;19970;-95
2022/01/21 17:38:49;;;;;;;;;;;;;;;;;;6224013;23;19947;-96
2022/01/21 17:41:15;;;;;;;;;;;;;;;;;;6224731;23;19920;-96
2022/01/21 17:43:41;;;;;;;;;;;;;;;;;;6224539;23;20360;-96
2022/01/21 17:46:08;;;;;;;;;;;;;;;;;;6224437;23;19930;-94
2022/01/21 17:48:36;;;;;;;;;;;;;;;;;;6225867;23;19924;-95
2022/01/21 17:51:02;;;;;;;;;;;;;;;;;;6226543;23;19943;-96
2022/01/21 17:53:38;;;;;;;;;;;;;;;;;;6226870;23;19904;-96
2022/01/21 17:56:05;;;;;;;;;;;;;;;;;;6224628;23;20159;-96
2022/01/21 17:58:31;;;;;;;;;;;;;;;;;;6225528;23;19955;-95
2022/01/21 18:01:03;;;;;;;;;;;;;;;;;;6230072;23;19969;-96
2022/01/21 18:14:17;;;;;;;;;;;;;;;;;;6210940;22;19951;-96
2022/01/21 18:16:45;;;;;;;;;;;;;;;;;;6183501;23;19931;-96
2022/01/21 18:27:18;;;;;;;;;;;;;;;;;;6203377;22;19931;-96
2022/01/21 18:32:34;;;;;;;;;;;;;;;;;;6209025;23;19924;-96
2022/01/21 18:37:51;;;;;;;;;;;;;;;;;;6209237;23;19911;-96
2022/01/21 19:01:20;;;;;;;;;;;;;;;;;;6146984;23;20002;-95
2022/01/21 19:11:38;;;;;;;;;;;;;;;;;;6246038;22;19907;-95
2022/01/21 19:14:05;;;;;;;;;;;;;;;;;;6225583;22;19920;-96
2022/01/21 19:19:06;;;;;;;;;;;;;;;;;;6203386;23;19920;-96
2022/01/21 19:24:23;;;;;;;;;;;;;;;;;;6217697;22;19924;-96
2022/01/21 19:42:56;;;;;;;;;;;;;;;;;;6204966;23;19952;-96
2022/01/21 19:48:10;;;;;;;;;;;;;;;;;;6136113;23;19934;-95
2022/01/21 19:58:21;;;;;;;;;;;;;;;;;;6232663;22;19951;-96
2022/01/21 20:06:21;;;;;;;;;;;;;;;;;;6225372;22;19935;-96
2022/01/21 20:08:51;;;;;;;;;;;;;;;;;;6208039;23;19904;-96
2022/01/21 20:11:25;;;;;;;;;;;;;;;;;;6258677;23;19946;-96
2022/01/21 20:13:54;;;;;;;;;;;;;;;;;;6259331;23;19967;-96
2022/01/21 20:24:16;;;;;;;;;;;;;;;;;;6234227;23;19923;-96
2022/01/21 20:26:43;;;;;;;;;;;;;;;;;;6242108;23;19931;-96
2022/01/21 20:29:10;;;;;;;;;;;;;;;;;;6228912;23;19904;-96
2022/01/21 20:34:20;;;;;;;;;;;;;;;;;;6173602;22;19925;-96
2022/01/21 20:52:47;;;;;;;;;;;;;;;;;;6265491;23;19946;-96
2022/01/21 20:57:57;;;;;;;;;;;;;;;;;;6269260;22;20366;-96
2022/01/21 21:13:50;;;;;;;;;;;;;;;;;;6228419;22;20008;-96
2022/01/21 21:24:35;;;;;;;;;;;;;;;;;;6226595;22;19948;-96
2022/01/21 22:52:39;;;;;;;;;;;;;;;;;;6227181;23;19983;-96
2022/01/21 23:00:34;;;;;;;;;;;;;;;;;;6171288;23;19920;-95
2022/01/21 23:03:01;;;;;;;;;;;;;;;;;;6222757;23;19924;-96
2022/01/21 23:05:27;;;;;;;;;;;;;;;;;;6223199;23;19920;-96
2022/01/21 23:07:55;;;;;;;;;;;;;;;;;;6222846;23;19926;-96
2022/01/21 23:10:21;;;;;;;;;;;;;;;;;;6223646;23;19924;-96
2022/01/21 23:12:47;;;;;;;;;;;;;;;;;;6225727;23;19920;-96
2022/01/21 23:15:14;;;;;;;;;;;;;;;;;;6224599;23;19934;-96
2022/01/21 23:17:40;;;;;;;;;;;;;;;;;;6226417;23;19950;-96
2022/01/21 23:20:07;;;;;;;;;;;;;;;;;;6225767;23;19928;-95
2022/01/21 23:22:33;;;;;;;;;;;;;;;;;;6226704;23;19920;-95
2022/01/21 23:25:02;;;;;;;;;;;;;;;;;;6228237;23;19967;-96
2022/01/21 23:27:42;;;;;;;;;;;;;;;;;;6225076;23;19920;-96
2022/01/21 23:30:08;;;;;;;;;;;;;;;;;;6224058;23;19927;-96
2022/01/21 23:32:38;;;;;;;;;;;;;;;;;;6227545;23;19920;-96
2022/01/21 23:35:08;;;;;;;;;;;;;;;;;;6227088;23;19926;-96
2022/01/21 23:37:45;;;;;;;;;;;;;;;;;;6226089;23;19963;-96
2022/01/21 23:40:18;;;;;;;;;;;;;;;;;;6226018;23;20302;-95
2022/01/21 23:42:44;;;;;;;;;;;;;;;;;;6226758;23;19923;-95
2022/01/21 23:45:10;;;;;;;;;;;;;;;;;;6226403;23;19928;-95
2022/01/21 23:47:37;;;;;;;;;;;;;;;;;;6198014;23;19924;-95
2022/01/21 23:50:11;;;;;;;;;;;;;;;;;;6225835;23;19923;-95
2022/01/21 23:52:38;;;;;;;;;;;;;;;;;;6226943;23;19926;-96
2022/01/21 23:55:04;;;;;;;;;;;;;;;;;;6227158;23;19920;-96
2022/01/21 23:57:31;;;;;;;;;;;;;;;;;;6227928;23;19943;-95
2022/01/21 23:59:57;;;;;;;;;;;;;;;;;;6227145;23;19920;-96
